sensor_id;sensor_type;location;lat;lon;timestamp;P1;durP1;ratioP1;P2;durP2;ratioP2
27201;SDS011;14717;46.924;15.474;2024-02-26T00:00:29;11.18;;;4.93;;
27201;SDS011;14717;46.924;15.474;2024-02-26T00:02:55;8.75;;;4.72;;
27201;SDS011;14717;46.924;15.474;2024-02-26T00:05:20;7.95;;;4.50;;
27201;SDS011;14717;46.924;15.474;2024-02-26T00:07:46;9.70;;;5.03;;
27201;SDS011;14717;46.924;15.474;2024-02-26T00:10:12;12.98;;;4.82;;
27201;SDS011;14717;46.924;15.474;2024-02-26T00:15:05;11.30;;;4.70;;
27201;SDS011;14717;46.924;15.474;2024-02-26T00:17:31;11.80;;;4.30;;
27201;SDS011;14717;46.924;15.474;2024-02-26T00:19:56;9.25;;;4.53;;
27201;SDS011;14717;46.924;15.474;2024-02-26T00:22:21;9.55;;;4.00;;
27201;SDS011;14717;46.924;15.474;2024-02-26T00:24:47;9.00;;;4.82;;
27201;SDS011;14717;46.924;15.474;2024-02-26T00:27:12;10.20;;;4.78;;
27201;SDS011;14717;46.924;15.474;2024-02-26T00:29:38;9.77;;;4.80;;
27201;SDS011;14717;46.924;15.474;2024-02-26T00:32:03;9.65;;;4.80;;
27201;SDS011;14717;46.924;15.474;2024-02-26T00:34:29;7.43;;;3.85;;
27201;SDS011;14717;46.924;15.474;2024-02-26T00:36:54;11.52;;;4.10;;
27201;SDS011;14717;46.924;15.474;2024-02-26T00:39:19;9.02;;;4.00;;
27201;SDS011;14717;46.924;15.474;2024-02-26T00:41:45;10.20;;;3.42;;
27201;SDS011;14717;46.924;15.474;2024-02-26T00:44:10;8.43;;;4.30;;
27201;SDS011;14717;46.924;15.474;2024-02-26T00:46:36;9.38;;;3.97;;
27201;SDS011;14717;46.924;15.474;2024-02-26T00:49:02;8.45;;;4.00;;
27201;SDS011;14717;46.924;15.474;2024-02-26T00:51:27;6.75;;;4.05;;
27201;SDS011;14717;46.924;15.474;2024-02-26T00:53:53;7.63;;;3.67;;
27201;SDS011;14717;46.924;15.474;2024-02-26T00:56:19;8.20;;;3.78;;
27201;SDS011;14717;46.924;15.474;2024-02-26T00:58:44;10.35;;;3.72;;
27201;SDS011;14717;46.924;15.474;2024-02-26T01:01:10;11.02;;;4.45;;
27201;SDS011;14717;46.924;15.474;2024-02-26T01:03:35;6.90;;;3.70;;
27201;SDS011;14717;46.924;15.474;2024-02-26T01:06:00;7.13;;;3.47;;
27201;SDS011;14717;46.924;15.474;2024-02-26T01:08:26;10.35;;;3.97;;
27201;SDS011;14717;46.924;15.474;2024-02-26T01:10:51;5.97;;;3.70;;
27201;SDS011;14717;46.924;15.474;2024-02-26T01:13:16;6.88;;;4.20;;
27201;SDS011;14717;46.924;15.474;2024-02-26T01:15:42;8.60;;;3.53;;
27201;SDS011;14717;46.924;15.474;2024-02-26T01:18:08;6.88;;;3.65;;
27201;SDS011;14717;46.924;15.474;2024-02-26T01:20:34;9.07;;;3.58;;
27201;SDS011;14717;46.924;15.474;2024-02-26T01:22:59;5.18;;;2.80;;
27201;SDS011;14717;46.924;15.474;2024-02-26T01:25:25;6.75;;;3.13;;
27201;SDS011;14717;46.924;15.474;2024-02-26T01:27:50;6.45;;;2.97;;
27201;SDS011;14717;46.924;15.474;2024-02-26T01:30:15;6.13;;;3.58;;
27201;SDS011;14717;46.924;15.474;2024-02-26T01:32:41;8.75;;;3.30;;
27201;SDS011;14717;46.924;15.474;2024-02-26T01:35:07;5.90;;;2.90;;
27201;SDS011;14717;46.924;15.474;2024-02-26T01:37:35;7.30;;;2.97;;
27201;SDS011;14717;46.924;15.474;2024-02-26T01:40:01;8.35;;;3.17;;
27201;SDS011;14717;46.924;15.474;2024-02-26T01:42:29;7.88;;;3.60;;
27201;SDS011;14717;46.924;15.474;2024-02-26T01:44:55;7.15;;;3.10;;
27201;SDS011;14717;46.924;15.474;2024-02-26T01:47:21;4.97;;;2.78;;
27201;SDS011;14717;46.924;15.474;2024-02-26T01:49:47;6.03;;;3.25;;
27201;SDS011;14717;46.924;15.474;2024-02-26T01:52:12;6.07;;;2.63;;
27201;SDS011;14717;46.924;15.474;2024-02-26T01:54:38;7.22;;;3.13;;
27201;SDS011;14717;46.924;15.474;2024-02-26T01:57:05;7.25;;;3.13;;
27201;SDS011;14717;46.924;15.474;2024-02-26T01:59:31;6.55;;;2.72;;
27201;SDS011;14717;46.924;15.474;2024-02-26T02:01:58;5.43;;;2.92;;
27201;SDS011;14717;46.924;15.474;2024-02-26T02:04:27;6.85;;;3.17;;
27201;SDS011;14717;46.924;15.474;2024-02-26T02:06:52;8.57;;;3.17;;
27201;SDS011;14717;46.924;15.474;2024-02-26T02:09:18;5.38;;;2.92;;
27201;SDS011;14717;46.924;15.474;2024-02-26T02:11:44;4.70;;;2.63;;
27201;SDS011;14717;46.924;15.474;2024-02-26T02:14:09;7.82;;;3.13;;
27201;SDS011;14717;46.924;15.474;2024-02-26T02:16:35;5.43;;;2.80;;
27201;SDS011;14717;46.924;15.474;2024-02-26T02:19:00;7.03;;;3.50;;
27201;SDS011;14717;46.924;15.474;2024-02-26T02:21:26;6.38;;;3.20;;
27201;SDS011;14717;46.924;15.474;2024-02-26T02:23:51;5.53;;;3.22;;
27201;SDS011;14717;46.924;15.474;2024-02-26T02:26:17;5.32;;;2.97;;
27201;SDS011;14717;46.924;15.474;2024-02-26T02:31:09;7.88;;;3.50;;
27201;SDS011;14717;46.924;15.474;2024-02-26T02:33:35;10.15;;;3.67;;
27201;SDS011;14717;46.924;15.474;2024-02-26T02:36:01;6.65;;;3.53;;
27201;SDS011;14717;46.924;15.474;2024-02-26T02:38:26;7.20;;;3.60;;
27201;SDS011;14717;46.924;15.474;2024-02-26T02:40:54;6.10;;;3.25;;
27201;SDS011;14717;46.924;15.474;2024-02-26T02:43:20;8.57;;;3.97;;
27201;SDS011;14717;46.924;15.474;2024-02-26T02:45:45;7.60;;;3.30;;
27201;SDS011;14717;46.924;15.474;2024-02-26T02:48:11;5.75;;;3.28;;
27201;SDS011;14717;46.924;15.474;2024-02-26T02:50:36;6.45;;;3.72;;
27201;SDS011;14717;46.924;15.474;2024-02-26T02:53:02;7.65;;;3.33;;
27201;SDS011;14717;46.924;15.474;2024-02-26T02:55:27;6.93;;;3.67;;
27201;SDS011;14717;46.924;15.474;2024-02-26T02:57:53;9.30;;;3.78;;
27201;SDS011;14717;46.924;15.474;2024-02-26T03:00:18;7.45;;;3.33;;
27201;SDS011;14717;46.924;15.474;2024-02-26T03:02:44;7.70;;;3.53;;
27201;SDS011;14717;46.924;15.474;2024-02-26T03:05:10;8.27;;;4.05;;
27201;SDS011;14717;46.924;15.474;2024-02-26T03:07:35;7.22;;;3.58;;
27201;SDS011;14717;46.924;15.474;2024-02-26T03:10:01;6.00;;;3.42;;
27201;SDS011;14717;46.924;15.474;2024-02-26T03:12:26;8.07;;;3.97;;
27201;SDS011;14717;46.924;15.474;2024-02-26T03:14:52;6.57;;;3.15;;
27201;SDS011;14717;46.924;15.474;2024-02-26T03:17:19;5.45;;;3.30;;
27201;SDS011;14717;46.924;15.474;2024-02-26T03:19:45;5.75;;;3.22;;
27201;SDS011;14717;46.924;15.474;2024-02-26T03:22:12;7.03;;;3.60;;
27201;SDS011;14717;46.924;15.474;2024-02-26T03:24:38;11.23;;;3.58;;
27201;SDS011;14717;46.924;15.474;2024-02-26T03:27:03;7.35;;;3.80;;
27201;SDS011;14717;46.924;15.474;2024-02-26T03:29:34;8.57;;;3.75;;
27201;SDS011;14717;46.924;15.474;2024-02-26T03:31:59;8.27;;;3.72;;
27201;SDS011;14717;46.924;15.474;2024-02-26T03:34:25;8.25;;;3.25;;
27201;SDS011;14717;46.924;15.474;2024-02-26T03:36:51;7.20;;;3.67;;
27201;SDS011;14717;46.924;15.474;2024-02-26T03:39:17;8.05;;;3.90;;
27201;SDS011;14717;46.924;15.474;2024-02-26T03:41:42;6.03;;;3.28;;
27201;SDS011;14717;46.924;15.474;2024-02-26T03:44:07;7.00;;;3.45;;
27201;SDS011;14717;46.924;15.474;2024-02-26T03:46:33;7.38;;;3.25;;
27201;SDS011;14717;46.924;15.474;2024-02-26T03:48:58;7.75;;;3.25;;
27201;SDS011;14717;46.924;15.474;2024-02-26T03:51:24;5.97;;;3.35;;
27201;SDS011;14717;46.924;15.474;2024-02-26T03:53:49;7.45;;;3.92;;
27201;SDS011;14717;46.924;15.474;2024-02-26T03:56:14;6.68;;;4.00;;
27201;SDS011;14717;46.924;15.474;2024-02-26T03:58:40;7.68;;;3.20;;
27201;SDS011;14717;46.924;15.474;2024-02-26T04:01:08;8.98;;;3.63;;
27201;SDS011;14717;46.924;15.474;2024-02-26T04:03:34;8.75;;;3.35;;
27201;SDS011;14717;46.924;15.474;2024-02-26T04:05:59;7.30;;;3.67;;
27201;SDS011;14717;46.924;15.474;2024-02-26T04:08:25;7.07;;;3.38;;
27201;SDS011;14717;46.924;15.474;2024-02-26T04:10:50;7.38;;;3.58;;
27201;SDS011;14717;46.924;15.474;2024-02-26T04:13:16;6.95;;;3.50;;
27201;SDS011;14717;46.924;15.474;2024-02-26T04:15:42;8.38;;;3.60;;
27201;SDS011;14717;46.924;15.474;2024-02-26T04:18:08;6.82;;;3.80;;
27201;SDS011;14717;46.924;15.474;2024-02-26T04:20:33;7.00;;;3.47;;
27201;SDS011;14717;46.924;15.474;2024-02-26T04:22:59;7.03;;;3.60;;
27201;SDS011;14717;46.924;15.474;2024-02-26T04:25:25;6.63;;;3.30;;
27201;SDS011;14717;46.924;15.474;2024-02-26T04:27:50;7.63;;;4.15;;
27201;SDS011;14717;46.924;15.474;2024-02-26T04:30:16;8.50;;;3.70;;
27201;SDS011;14717;46.924;15.474;2024-02-26T04:32:42;8.35;;;3.83;;
27201;SDS011;14717;46.924;15.474;2024-02-26T04:35:08;8.63;;;3.42;;
27201;SDS011;14717;46.924;15.474;2024-02-26T04:37:34;6.95;;;3.67;;
27201;SDS011;14717;46.924;15.474;2024-02-26T04:40:00;8.90;;;3.47;;
27201;SDS011;14717;46.924;15.474;2024-02-26T04:44:52;9.75;;;3.80;;
27201;SDS011;14717;46.924;15.474;2024-02-26T04:47:17;6.95;;;3.88;;
27201;SDS011;14717;46.924;15.474;2024-02-26T04:49:43;5.95;;;3.25;;
27201;SDS011;14717;46.924;15.474;2024-02-26T04:52:08;7.97;;;4.10;;
27201;SDS011;14717;46.924;15.474;2024-02-26T04:54:33;6.55;;;3.53;;
27201;SDS011;14717;46.924;15.474;2024-02-26T04:56:59;7.85;;;4.07;;
27201;SDS011;14717;46.924;15.474;2024-02-26T04:59:24;7.82;;;3.95;;
27201;SDS011;14717;46.924;15.474;2024-02-26T05:01:49;9.23;;;4.03;;
27201;SDS011;14717;46.924;15.474;2024-02-26T05:04:16;8.05;;;3.78;;
27201;SDS011;14717;46.924;15.474;2024-02-26T05:06:42;10.30;;;3.88;;
27201;SDS011;14717;46.924;15.474;2024-02-26T05:09:07;6.63;;;3.85;;
27201;SDS011;14717;46.924;15.474;2024-02-26T05:11:33;5.28;;;3.40;;
27201;SDS011;14717;46.924;15.474;2024-02-26T05:13:58;7.88;;;4.07;;
27201;SDS011;14717;46.924;15.474;2024-02-26T05:16:25;6.93;;;3.95;;
27201;SDS011;14717;46.924;15.474;2024-02-26T05:18:52;6.22;;;3.92;;
27201;SDS011;14717;46.924;15.474;2024-02-26T05:21:17;8.75;;;3.70;;
27201;SDS011;14717;46.924;15.474;2024-02-26T05:23:43;8.60;;;4.13;;
27201;SDS011;14717;46.924;15.474;2024-02-26T05:26:09;7.75;;;3.92;;
27201;SDS011;14717;46.924;15.474;2024-02-26T05:28:34;8.90;;;3.83;;
27201;SDS011;14717;46.924;15.474;2024-02-26T05:31:01;8.27;;;4.28;;
27201;SDS011;14717;46.924;15.474;2024-02-26T05:33:28;9.20;;;4.38;;
27201;SDS011;14717;46.924;15.474;2024-02-26T05:35:53;5.93;;;3.95;;
27201;SDS011;14717;46.924;15.474;2024-02-26T05:38:19;8.30;;;3.80;;
27201;SDS011;14717;46.924;15.474;2024-02-26T05:40:44;8.50;;;4.43;;
27201;SDS011;14717;46.924;15.474;2024-02-26T05:43:11;13.38;;;4.78;;
27201;SDS011;14717;46.924;15.474;2024-02-26T05:45:36;9.40;;;4.90;;
27201;SDS011;14717;46.924;15.474;2024-02-26T05:48:01;10.30;;;5.15;;
27201;SDS011;14717;46.924;15.474;2024-02-26T05:50:28;10.40;;;5.57;;
27201;SDS011;14717;46.924;15.474;2024-02-26T05:52:53;8.13;;;4.35;;
27201;SDS011;14717;46.924;15.474;2024-02-26T05:55:18;7.22;;;4.40;;
27201;SDS011;14717;46.924;15.474;2024-02-26T05:57:44;9.43;;;3.83;;
27201;SDS011;14717;46.924;15.474;2024-02-26T06:00:09;6.32;;;3.83;;
27201;SDS011;14717;46.924;15.474;2024-02-26T06:02:35;10.93;;;4.78;;
27201;SDS011;14717;46.924;15.474;2024-02-26T06:05:01;9.07;;;4.15;;
27201;SDS011;14717;46.924;15.474;2024-02-26T06:07:26;6.30;;;3.60;;
27201;SDS011;14717;46.924;15.474;2024-02-26T06:09:51;7.28;;;4.38;;
27201;SDS011;14717;46.924;15.474;2024-02-26T06:12:17;7.15;;;3.80;;
27201;SDS011;14717;46.924;15.474;2024-02-26T06:14:42;9.60;;;4.13;;
27201;SDS011;14717;46.924;15.474;2024-02-26T06:17:08;6.63;;;4.28;;
27201;SDS011;14717;46.924;15.474;2024-02-26T06:19:33;7.70;;;4.35;;
27201;SDS011;14717;46.924;15.474;2024-02-26T06:21:59;7.28;;;3.47;;
27201;SDS011;14717;46.924;15.474;2024-02-26T06:24:24;8.55;;;4.38;;
27201;SDS011;14717;46.924;15.474;2024-02-26T06:26:50;7.22;;;4.55;;
27201;SDS011;14717;46.924;15.474;2024-02-26T06:29:15;9.60;;;4.13;;
27201;SDS011;14717;46.924;15.474;2024-02-26T06:31:40;10.55;;;5.22;;
27201;SDS011;14717;46.924;15.474;2024-02-26T06:34:06;12.63;;;4.75;;
27201;SDS011;14717;46.924;15.474;2024-02-26T06:36:31;9.73;;;4.10;;
27201;SDS011;14717;46.924;15.474;2024-02-26T06:38:57;7.80;;;4.35;;
27201;SDS011;14717;46.924;15.474;2024-02-26T06:41:23;10.05;;;4.70;;
27201;SDS011;14717;46.924;15.474;2024-02-26T06:43:54;10.93;;;4.70;;
27201;SDS011;14717;46.924;15.474;2024-02-26T06:46:20;14.75;;;5.20;;
27201;SDS011;14717;46.924;15.474;2024-02-26T06:48:47;9.88;;;4.57;;
27201;SDS011;14717;46.924;15.474;2024-02-26T06:51:13;12.07;;;4.50;;
27201;SDS011;14717;46.924;15.474;2024-02-26T06:53:38;10.18;;;4.97;;
27201;SDS011;14717;46.924;15.474;2024-02-26T06:56:04;10.18;;;5.25;;
27201;SDS011;14717;46.924;15.474;2024-02-26T06:58:29;8.35;;;5.05;;
27201;SDS011;14717;46.924;15.474;2024-02-26T07:00:55;11.63;;;5.95;;
27201;SDS011;14717;46.924;15.474;2024-02-26T07:03:20;13.82;;;6.35;;
27201;SDS011;14717;46.924;15.474;2024-02-26T07:05:47;10.90;;;6.38;;
27201;SDS011;14717;46.924;15.474;2024-02-26T07:08:13;15.77;;;6.55;;
27201;SDS011;14717;46.924;15.474;2024-02-26T07:10:38;11.13;;;5.93;;
27201;SDS011;14717;46.924;15.474;2024-02-26T07:13:04;11.48;;;6.13;;
27201;SDS011;14717;46.924;15.474;2024-02-26T07:15:29;9.20;;;5.05;;
27201;SDS011;14717;46.924;15.474;2024-02-26T07:17:54;12.45;;;5.90;;
27201;SDS011;14717;46.924;15.474;2024-02-26T07:20:20;11.10;;;5.60;;
27201;SDS011;14717;46.924;15.474;2024-02-26T07:22:45;11.20;;;6.05;;
27201;SDS011;14717;46.924;15.474;2024-02-26T07:25:11;8.82;;;4.97;;
27201;SDS011;14717;46.924;15.474;2024-02-26T07:27:38;10.30;;;5.43;;
27201;SDS011;14717;46.924;15.474;2024-02-26T07:30:05;11.25;;;5.80;;
27201;SDS011;14717;46.924;15.474;2024-02-26T07:32:31;15.63;;;5.93;;
27201;SDS011;14717;46.924;15.474;2024-02-26T07:34:56;9.52;;;5.32;;
27201;SDS011;14717;46.924;15.474;2024-02-26T07:37:22;12.85;;;5.60;;
27201;SDS011;14717;46.924;15.474;2024-02-26T07:39:47;9.65;;;5.18;;
27201;SDS011;14717;46.924;15.474;2024-02-26T07:42:12;13.63;;;5.68;;
27201;SDS011;14717;46.924;15.474;2024-02-26T07:44:38;16.83;;;7.35;;
27201;SDS011;14717;46.924;15.474;2024-02-26T07:47:03;11.52;;;6.63;;
27201;SDS011;14717;46.924;15.474;2024-02-26T07:49:29;14.05;;;6.45;;
27201;SDS011;14717;46.924;15.474;2024-02-26T07:51:54;12.77;;;6.40;;
27201;SDS011;14717;46.924;15.474;2024-02-26T07:54:22;14.15;;;6.70;;
27201;SDS011;14717;46.924;15.474;2024-02-26T07:56:48;13.15;;;6.53;;
27201;SDS011;14717;46.924;15.474;2024-02-26T07:59:13;16.05;;;6.55;;
27201;SDS011;14717;46.924;15.474;2024-02-26T08:01:38;13.55;;;6.38;;
27201;SDS011;14717;46.924;15.474;2024-02-26T08:04:06;13.63;;;5.68;;
27201;SDS011;14717;46.924;15.474;2024-02-26T08:06:31;14.13;;;5.55;;
27201;SDS011;14717;46.924;15.474;2024-02-26T08:08:57;12.25;;;6.25;;
27201;SDS011;14717;46.924;15.474;2024-02-26T08:11:22;13.07;;;5.68;;
27201;SDS011;14717;46.924;15.474;2024-02-26T08:13:47;16.23;;;5.57;;
27201;SDS011;14717;46.924;15.474;2024-02-26T08:16:13;12.05;;;5.38;;
27201;SDS011;14717;46.924;15.474;2024-02-26T08:18:38;9.45;;;5.20;;
27201;SDS011;14717;46.924;15.474;2024-02-26T08:21:04;11.55;;;6.32;;
27201;SDS011;14717;46.924;15.474;2024-02-26T08:23:29;11.65;;;5.80;;
27201;SDS011;14717;46.924;15.474;2024-02-26T08:25:56;13.23;;;5.43;;
27201;SDS011;14717;46.924;15.474;2024-02-26T08:28:21;11.27;;;5.60;;
27201;SDS011;14717;46.924;15.474;2024-02-26T08:30:47;13.02;;;5.65;;
27201;SDS011;14717;46.924;15.474;2024-02-26T08:33:12;10.52;;;5.60;;
27201;SDS011;14717;46.924;15.474;2024-02-26T08:35:38;12.00;;;5.55;;
27201;SDS011;14717;46.924;15.474;2024-02-26T08:38:04;13.18;;;5.63;;
27201;SDS011;14717;46.924;15.474;2024-02-26T08:40:29;11.23;;;5.47;;
27201;SDS011;14717;46.924;15.474;2024-02-26T08:42:55;11.45;;;5.65;;
27201;SDS011;14717;46.924;15.474;2024-02-26T08:45:20;9.25;;;4.93;;
27201;SDS011;14717;46.924;15.474;2024-02-26T08:47:46;10.40;;;5.40;;
27201;SDS011;14717;46.924;15.474;2024-02-26T08:50:11;10.82;;;5.30;;
27201;SDS011;14717;46.924;15.474;2024-02-26T08:52:37;10.05;;;5.75;;
27201;SDS011;14717;46.924;15.474;2024-02-26T08:55:03;13.68;;;6.00;;
27201;SDS011;14717;46.924;15.474;2024-02-26T08:57:29;10.32;;;5.72;;
27201;SDS011;14717;46.924;15.474;2024-02-26T08:59:57;14.10;;;5.20;;
27201;SDS011;14717;46.924;15.474;2024-02-26T09:02:23;9.02;;;4.72;;
27201;SDS011;14717;46.924;15.474;2024-02-26T09:04:48;7.10;;;4.50;;
27201;SDS011;14717;46.924;15.474;2024-02-26T09:07:13;13.75;;;4.80;;
27201;SDS011;14717;46.924;15.474;2024-02-26T09:09:39;11.45;;;4.40;;
27201;SDS011;14717;46.924;15.474;2024-02-26T09:12:04;7.60;;;4.88;;
27201;SDS011;14717;46.924;15.474;2024-02-26T09:14:30;11.02;;;3.85;;
27201;SDS011;14717;46.924;15.474;2024-02-26T09:16:55;6.55;;;3.40;;
27201;SDS011;14717;46.924;15.474;2024-02-26T09:19:20;8.32;;;3.50;;
27201;SDS011;14717;46.924;15.474;2024-02-26T09:21:46;13.75;;;3.53;;
27201;SDS011;14717;46.924;15.474;2024-02-26T09:24:11;6.97;;;3.67;;
27201;SDS011;14717;46.924;15.474;2024-02-26T09:26:37;9.15;;;3.45;;
27201;SDS011;14717;46.924;15.474;2024-02-26T09:29:03;9.65;;;4.25;;
27201;SDS011;14717;46.924;15.474;2024-02-26T09:31:29;11.82;;;3.70;;
27201;SDS011;14717;46.924;15.474;2024-02-26T09:33:54;6.72;;;3.30;;
27201;SDS011;14717;46.924;15.474;2024-02-26T09:36:20;8.07;;;3.25;;
27201;SDS011;14717;46.924;15.474;2024-02-26T09:38:46;6.45;;;3.10;;
27201;SDS011;14717;46.924;15.474;2024-02-26T09:41:14;6.20;;;3.30;;
27201;SDS011;14717;46.924;15.474;2024-02-26T09:43:40;6.40;;;2.90;;
27201;SDS011;14717;46.924;15.474;2024-02-26T09:46:10;9.25;;;3.45;;
27201;SDS011;14717;46.924;15.474;2024-02-26T09:48:35;6.75;;;2.90;;
27201;SDS011;14717;46.924;15.474;2024-02-26T09:51:02;2.35;;;1.33;;
27201;SDS011;14717;46.924;15.474;2024-02-26T09:53:29;2.10;;;1.40;;
27201;SDS011;14717;46.924;15.474;2024-02-26T09:55:57;3.83;;;1.70;;
27201;SDS011;14717;46.924;15.474;2024-02-26T09:58:23;4.20;;;2.03;;
27201;SDS011;14717;46.924;15.474;2024-02-26T10:00:51;4.90;;;1.80;;
27201;SDS011;14717;46.924;15.474;2024-02-26T10:03:21;5.97;;;2.08;;
27201;SDS011;14717;46.924;15.474;2024-02-26T10:05:51;3.85;;;1.75;;
27201;SDS011;14717;46.924;15.474;2024-02-26T10:08:20;2.67;;;1.67;;
27201;SDS011;14717;46.924;15.474;2024-02-26T10:10:47;5.13;;;1.95;;
27201;SDS011;14717;46.924;15.474;2024-02-26T10:13:12;2.88;;;1.67;;
27201;SDS011;14717;46.924;15.474;2024-02-26T10:15:38;3.45;;;1.85;;
27201;SDS011;14717;46.924;15.474;2024-02-26T10:18:04;4.55;;;1.42;;
27201;SDS011;14717;46.924;15.474;2024-02-26T10:20:32;3.05;;;1.70;;
27201;SDS011;14717;46.924;15.474;2024-02-26T10:22:58;5.40;;;2.00;;
27201;SDS011;14717;46.924;15.474;2024-02-26T10:25:27;2.47;;;1.58;;
27201;SDS011;14717;46.924;15.474;2024-02-26T10:27:52;4.38;;;1.70;;
27201;SDS011;14717;46.924;15.474;2024-02-26T10:30:21;3.40;;;1.60;;
27201;SDS011;14717;46.924;15.474;2024-02-26T10:32:50;3.88;;;1.83;;
27201;SDS011;14717;46.924;15.474;2024-02-26T10:35:16;3.92;;;1.88;;
27201;SDS011;14717;46.924;15.474;2024-02-26T10:37:43;2.88;;;1.73;;
27201;SDS011;14717;46.924;15.474;2024-02-26T10:40:09;3.13;;;1.60;;
27201;SDS011;14717;46.924;15.474;2024-02-26T10:42:35;4.13;;;1.60;;
27201;SDS011;14717;46.924;15.474;2024-02-26T10:45:01;3.35;;;1.75;;
27201;SDS011;14717;46.924;15.474;2024-02-26T10:49:53;4.05;;;1.80;;
27201;SDS011;14717;46.924;15.474;2024-02-26T10:52:18;3.42;;;1.92;;
27201;SDS011;14717;46.924;15.474;2024-02-26T10:57:12;3.38;;;1.92;;
27201;SDS011;14717;46.924;15.474;2024-02-26T10:59:38;5.65;;;2.08;;
27201;SDS011;14717;46.924;15.474;2024-02-26T11:04:30;4.15;;;2.05;;
27201;SDS011;14717;46.924;15.474;2024-02-26T11:09:22;3.35;;;1.63;;
27201;SDS011;14717;46.924;15.474;2024-02-26T11:11:48;4.38;;;1.90;;
27201;SDS011;14717;46.924;15.474;2024-02-26T11:14:19;4.93;;;1.75;;
27201;SDS011;14717;46.924;15.474;2024-02-26T11:19:12;7.25;;;2.53;;
27201;SDS011;14717;46.924;15.474;2024-02-26T11:21:38;4.93;;;1.88;;
27201;SDS011;14717;46.924;15.474;2024-02-26T11:24:07;4.63;;;1.90;;
27201;SDS011;14717;46.924;15.474;2024-02-26T11:26:36;4.80;;;1.90;;
27201;SDS011;14717;46.924;15.474;2024-02-26T11:29:10;3.80;;;1.70;;
27201;SDS011;14717;46.924;15.474;2024-02-26T11:31:38;3.53;;;1.65;;
27201;SDS011;14717;46.924;15.474;2024-02-26T11:36:31;3.85;;;1.80;;
27201;SDS011;14717;46.924;15.474;2024-02-26T11:38:57;3.38;;;1.70;;
27201;SDS011;14717;46.924;15.474;2024-02-26T11:41:23;4.30;;;1.58;;
27201;SDS011;14717;46.924;15.474;2024-02-26T11:46:26;5.45;;;1.75;;
27201;SDS011;14717;46.924;15.474;2024-02-26T11:49:02;3.38;;;1.58;;
27201;SDS011;14717;46.924;15.474;2024-02-26T11:51:50;2.60;;;1.50;;
27201;SDS011;14717;46.924;15.474;2024-02-26T11:54:37;2.75;;;1.35;;
27201;SDS011;14717;46.924;15.474;2024-02-26T11:59:45;3.47;;;1.73;;
27201;SDS011;14717;46.924;15.474;2024-02-26T12:02:10;3.78;;;1.40;;
27201;SDS011;14717;46.924;15.474;2024-02-26T12:04:37;3.85;;;1.42;;
27201;SDS011;14717;46.924;15.474;2024-02-26T12:07:03;3.47;;;1.67;;
27201;SDS011;14717;46.924;15.474;2024-02-26T12:09:39;2.67;;;1.40;;
27201;SDS011;14717;46.924;15.474;2024-02-26T12:12:13;2.50;;;1.45;;
27201;SDS011;14717;46.924;15.474;2024-02-26T12:14:52;2.40;;;1.08;;
27201;SDS011;14717;46.924;15.474;2024-02-26T12:17:21;2.42;;;1.00;;
27201;SDS011;14717;46.924;15.474;2024-02-26T12:19:47;1.65;;;0.80;;
27201;SDS011;14717;46.924;15.474;2024-02-26T12:22:13;1.20;;;0.85;;
27201;SDS011;14717;46.924;15.474;2024-02-26T12:24:42;1.40;;;0.80;;
27201;SDS011;14717;46.924;15.474;2024-02-26T12:27:08;1.52;;;0.88;;
27201;SDS011;14717;46.924;15.474;2024-02-26T12:29:34;1.67;;;0.95;;
27201;SDS011;14717;46.924;15.474;2024-02-26T12:31:59;0.98;;;0.80;;
27201;SDS011;14717;46.924;15.474;2024-02-26T12:34:25;1.98;;;0.98;;
27201;SDS011;14717;46.924;15.474;2024-02-26T12:36:51;1.80;;;0.90;;
27201;SDS011;14717;46.924;15.474;2024-02-26T12:39:18;1.15;;;0.85;;
27201;SDS011;14717;46.924;15.474;2024-02-26T12:41:45;4.03;;;0.80;;
27201;SDS011;14717;46.924;15.474;2024-02-26T12:44:14;1.20;;;0.73;;
27201;SDS011;14717;46.924;15.474;2024-02-26T12:46:41;0.77;;;0.70;;
27201;SDS011;14717;46.924;15.474;2024-02-26T12:49:06;2.10;;;0.80;;
27201;SDS011;14717;46.924;15.474;2024-02-26T12:51:33;0.57;;;0.57;;
27201;SDS011;14717;46.924;15.474;2024-02-26T12:56:24;2.53;;;0.82;;
27201;SDS011;14717;46.924;15.474;2024-02-26T12:58:51;0.77;;;0.63;;
27201;SDS011;14717;46.924;15.474;2024-02-26T13:01:19;1.20;;;1.00;;
27201;SDS011;14717;46.924;15.474;2024-02-26T13:03:47;1.35;;;0.90;;
27201;SDS011;14717;46.924;15.474;2024-02-26T13:06:14;1.10;;;0.73;;
27201;SDS011;14717;46.924;15.474;2024-02-26T13:11:05;2.33;;;0.70;;
27201;SDS011;14717;46.924;15.474;2024-02-26T13:16:03;0.60;;;0.60;;
27201;SDS011;14717;46.924;15.474;2024-02-26T13:18:33;3.65;;;1.00;;
27201;SDS011;14717;46.924;15.474;2024-02-26T13:21:09;1.80;;;0.75;;
27201;SDS011;14717;46.924;15.474;2024-02-26T13:23:36;1.58;;;0.70;;
27201;SDS011;14717;46.924;15.474;2024-02-26T13:26:02;1.17;;;0.80;;
27201;SDS011;14717;46.924;15.474;2024-02-26T13:28:28;1.48;;;0.70;;
27201;SDS011;14717;46.924;15.474;2024-02-26T13:33:23;0.93;;;0.60;;
27201;SDS011;14717;46.924;15.474;2024-02-26T13:35:50;1.10;;;0.60;;
27201;SDS011;14717;46.924;15.474;2024-02-26T13:38:15;1.27;;;0.50;;
27201;SDS011;14717;46.924;15.474;2024-02-26T13:40:42;1.02;;;0.60;;
27201;SDS011;14717;46.924;15.474;2024-02-26T13:43:07;0.70;;;0.50;;
27201;SDS011;14717;46.924;15.474;2024-02-26T13:48:03;0.73;;;0.65;;
27201;SDS011;14717;46.924;15.474;2024-02-26T13:50:29;3.15;;;0.80;;
27201;SDS011;14717;46.924;15.474;2024-02-26T13:52:55;1.75;;;0.80;;
27201;SDS011;14717;46.924;15.474;2024-02-26T13:57:49;1.23;;;0.73;;
27201;SDS011;14717;46.924;15.474;2024-02-26T14:00:16;2.88;;;1.70;;
27201;SDS011;14717;46.924;15.474;2024-02-26T14:02:42;0.98;;;0.77;;
27201;SDS011;14717;46.924;15.474;2024-02-26T14:05:08;2.42;;;0.82;;
27201;SDS011;14717;46.924;15.474;2024-02-26T14:09:58;1.03;;;0.70;;
27201;SDS011;14717;46.924;15.474;2024-02-26T14:14:49;1.73;;;0.73;;
27201;SDS011;14717;46.924;15.474;2024-02-26T14:17:14;1.85;;;0.90;;
27201;SDS011;14717;46.924;15.474;2024-02-26T14:19:40;1.85;;;1.15;;
27201;SDS011;14717;46.924;15.474;2024-02-26T14:22:12;0.73;;;0.60;;
27201;SDS011;14717;46.924;15.474;2024-02-26T14:24:38;4.10;;;1.67;;
27201;SDS011;14717;46.924;15.474;2024-02-26T14:27:04;4.82;;;0.73;;
27201;SDS011;14717;46.924;15.474;2024-02-26T14:29:30;2.28;;;0.93;;
27201;SDS011;14717;46.924;15.474;2024-02-26T14:31:55;1.70;;;0.80;;
27201;SDS011;14717;46.924;15.474;2024-02-26T14:34:21;1.20;;;0.77;;
27201;SDS011;14717;46.924;15.474;2024-02-26T14:36:47;1.52;;;0.80;;
27201;SDS011;14717;46.924;15.474;2024-02-26T14:39:12;2.95;;;0.98;;
27201;SDS011;14717;46.924;15.474;2024-02-26T14:41:38;1.77;;;1.02;;
27201;SDS011;14717;46.924;15.474;2024-02-26T14:44:04;1.13;;;0.80;;
27201;SDS011;14717;46.924;15.474;2024-02-26T14:46:30;0.93;;;0.80;;
27201;SDS011;14717;46.924;15.474;2024-02-26T14:48:55;3.30;;;1.40;;
27201;SDS011;14717;46.924;15.474;2024-02-26T14:51:21;1.42;;;1.00;;
27201;SDS011;14717;46.924;15.474;2024-02-26T14:53:47;2.47;;;1.17;;
27201;SDS011;14717;46.924;15.474;2024-02-26T14:56:13;2.63;;;1.25;;
27201;SDS011;14717;46.924;15.474;2024-02-26T14:58:38;1.50;;;0.90;;
27201;SDS011;14717;46.924;15.474;2024-02-26T15:01:03;3.05;;;0.90;;
27201;SDS011;14717;46.924;15.474;2024-02-26T15:03:29;3.72;;;0.90;;
27201;SDS011;14717;46.924;15.474;2024-02-26T15:05:54;2.15;;;0.90;;
27201;SDS011;14717;46.924;15.474;2024-02-26T15:08:20;1.95;;;1.00;;
27201;SDS011;14717;46.924;15.474;2024-02-26T15:10:45;2.30;;;1.10;;